Time;durP1;ratioP1;P1;durP2;ratioP2;P2;SDS_P1;SDS_P2;PMS_P1;PMS_P2;Temp;Humidity;BMP_temperature;BMP_pressure;BME280_temperature;BME280_humidity;BME280_pressure;Samples;Min_cycle;Max_cycle;Signal;HPM_P1;HPM_P2
2022/02/19 00:02:07;;;;;;;2.57;1.00;;;;;;;11.55;59.30;96602.88;6210137;28;20230;-72
2022/02/19 00:05:10;;;;;;;4.67;0.90;;;;;;;11.50;59.67;96614.88;6208278;28;20732;-72
2022/02/19 00:08:13;;;;;;;1.40;0.90;;;;;;;11.48;59.87;96610.56;6203316;28;20776;-72
2022/02/19 00:11:15;;;;;;;2.40;0.93;;;;;;;11.53;59.82;96635.72;6201433;28;20230;-72
2022/02/19 00:14:18;;;;;;;3.83;1.57;;;;;;;11.55;59.72;96668.94;6192481;28;20235;-72
2022/02/19 00:17:21;;;;;;;2.77;1.40;;;;;;;11.58;59.86;96676.53;6191019;28;20236;-71
2022/02/19 00:20:23;;;;;;;3.37;1.60;;;;;;;11.51;59.93;96687.88;6205150;28;20233;-71
2022/02/19 00:23:28;;;;;;;2.40;1.13;;;;;;;11.48;60.85;96680.28;6200196;28;20754;-71
2022/02/19 00:26:30;;;;;;;2.20;0.83;;;;;;;11.36;61.24;96706.09;6201647;28;20253;-71
2022/02/19 00:29:33;;;;;;;3.20;0.93;;;;;;;11.13;62.30;96729.47;6199754;28;20603;-72
2022/02/19 00:32:35;;;;;;;3.27;1.23;;;;;;;11.05;62.47;96737.31;6202042;28;20238;-72
2022/02/19 00:35:37;;;;;;;3.53;1.10;;;;;;;10.96;62.59;96783.94;6199921;28;20638;-72
2022/02/19 00:38:40;;;;;;;3.33;1.40;;;;;;;10.90;62.18;96767.81;6203937;28;20236;-72
2022/02/19 00:41:42;;;;;;;2.10;1.07;;;;;;;10.83;62.59;96786.06;6227479;28;20263;-72
2022/02/19 00:44:44;;;;;;;1.50;0.87;;;;;;;10.69;60.39;96803.22;6229693;28;20233;-73
2022/02/19 00:47:47;;;;;;;1.60;0.73;;;;;;;10.48;61.36;96805.22;6231700;28;20319;-73
2022/02/19 00:50:49;;;;;;;2.20;1.00;;;;;;;10.26;61.71;96802.97;6229212;28;20239;-72
2022/02/19 00:53:51;;;;;;;1.53;0.67;;;;;;;10.08;60.44;96833.63;6228986;28;20216;-72
2022/02/19 00:56:54;;;;;;;0.70;0.40;;;;;;;9.94;60.35;96850.69;6228294;28;20228;-72
2022/02/19 01:00:00;;;;;;;1.00;0.50;;;;;;;9.84;57.96;96855.13;6229891;28;20228;-71
2022/02/19 01:03:03;;;;;;;1.53;0.53;;;;;;;9.67;58.57;96885.66;6203247;28;20387;-72
2022/02/19 01:06:05;;;;;;;0.93;0.30;;;;;;;9.46;58.53;96879.66;6206968;28;20228;-72
2022/02/19 01:09:07;;;;;;;0.73;0.20;;;;;;;9.27;58.54;96914.66;6204511;28;20648;-72
2022/02/19 01:12:10;;;;;;;0.20;0.20;;;;;;;8.97;59.78;96893.63;6204860;28;20231;-72
2022/02/19 01:15:12;;;;;;;1.50;0.40;;;;;;;8.68;61.03;96899.59;6205038;28;20213;-71
2022/02/19 01:18:14;;;;;;;1.90;0.43;;;;;;;8.46;61.25;96907.63;6205433;28;20680;-72
2022/02/19 01:21:18;;;;;;;0.93;0.50;;;;;;;8.24;62.17;96905.09;6206464;28;20227;-72
2022/02/19 01:24:22;;;;;;;1.43;0.43;;;;;;;8.03;62.33;96897.19;6207235;28;20684;-72
2022/02/19 01:27:29;;;;;;;0.90;0.30;;;;;;;7.88;61.72;96925.56;6220961;28;20226;-71
2022/02/19 01:30:31;;;;;;;0.37;0.37;;;;;;;7.71;62.09;96918.22;6204195;28;20236;-70
2022/02/19 01:33:36;;;;;;;0.87;0.30;;;;;;;7.59;61.31;96906.06;6187507;28;20228;-72
2022/02/19 01:36:42;;;;;;;0.83;0.50;;;;;;;7.45;61.78;96920.31;6206252;28;20236;-71
2022/02/19 01:39:45;;;;;;;3.30;0.50;;;;;;;7.37;61.55;96928.81;6220029;28;20703;-72
2022/02/19 01:42:49;;;;;;;1.40;0.40;;;;;;;7.26;61.54;96901.75;6179778;28;20327;-72
2022/02/19 01:45:54;;;;;;;1.43;0.37;;;;;;;7.08;61.50;96898.78;6187347;28;20236;-71
2022/02/19 01:48:56;;;;;;;0.97;0.20;;;;;;;6.98;61.86;96903.94;6219860;28;20227;-71
2022/02/19 01:51:58;;;;;;;0.87;0.40;;;;;;;6.93;60.50;96910.47;6204855;28;20763;-71
2022/02/19 01:55:03;;;;;;;0.70;0.37;;;;;;;6.81;61.13;96911.41;6204426;28;20235;-71
2022/02/19 01:58:18;;;;;;;0.30;0.30;;;;;;;6.70;62.13;96912.25;6188979;28;20240;-71
2022/02/19 02:01:41;;;;;;;0.50;0.20;;;;;;;6.62;61.84;96901.50;6215807;28;20237;-71
2022/02/19 02:05:04;;;;;;;0.67;0.40;;;;;;;6.49;62.84;96903.44;6226636;28;20235;-72
2022/02/19 02:08:07;;;;;;;0.50;0.37;;;;;;;6.41;62.82;96924.13;6210472;28;20233;-71
2022/02/19 02:11:10;;;;;;;0.53;0.40;;;;;;;6.32;63.06;96923.03;6204183;28;20232;-72
2022/02/19 02:14:25;;;;;;;0.20;0.10;;;;;;;6.27;62.26;96917.31;6195201;28;20640;-72
2022/02/19 02:17:40;;;;;;;2.77;0.43;;;;;;;6.17;63.69;96911.09;6203457;28;20245;-72
2022/02/19 02:20:42;;;;;;;0.80;0.50;;;;;;;6.08;63.33;96920.47;6186305;28;20240;-72
2022/02/19 02:23:46;;;;;;;0.60;0.37;;;;;;;5.96;64.45;96957.22;6203089;28;20593;-72
2022/02/19 02:26:50;;;;;;;0.30;0.27;;;;;;;5.95;63.12;96953.75;6202696;28;20245;-72
2022/02/19 02:29:55;;;;;;;0.60;0.30;;;;;;;6.00;62.17;96933.28;6218445;28;20777;-71
2022/02/19 02:33:25;;;;;;;0.70;0.30;;;;;;;6.23;60.98;96926.34;6203194;28;20231;-71
2022/02/19 02:36:37;;;;;;;2.20;0.40;;;;;;;6.15;60.44;96942.66;6204587;28;20240;-71
2022/02/19 02:39:40;;;;;;;1.07;0.30;;;;;;;6.10;59.66;96936.91;6214310;28;20711;-71
2022/02/19 02:42:43;;;;;;;0.93;0.40;;;;;;;6.16;59.45;96948.72;6193920;28;20632;-71
2022/02/19 02:45:48;;;;;;;0.30;0.30;;;;;;;6.20;59.73;96952.75;6196467;28;20299;-71
2022/02/19 02:48:57;;;;;;;1.63;0.47;;;;;;;6.13;59.99;96959.41;6186708;28;20743;-70
2022/02/19 02:52:04;;;;;;;1.03;0.40;;;;;;;6.07;60.73;96962.50;6202280;28;20810;-71
2022/02/19 02:55:09;;;;;;;1.57;0.50;;;;;;;6.01;60.10;96950.66;6185791;28;20606;-71
2022/02/19 02:58:11;;;;;;;2.20;0.80;;;;;;;6.02;59.85;96972.47;6204322;28;20235;-70
2022/02/19 03:01:13;;;;;;;1.50;0.43;;;;;;;5.93;60.11;96966.97;6211814;28;20696;-71
2022/02/19 03:04:17;;;;;;;1.90;0.50;;;;;;;5.98;60.08;96968.41;6226248;28;20578;-72
2022/02/19 03:07:20;;;;;;;2.77;0.37;;;;;;;5.90;59.50;97021.31;6225669;28;20270;-71
2022/02/19 03:10:22;;;;;;;0.90;0.40;;;;;;;6.09;58.82;96995.47;6202490;28;20232;-71
2022/02/19 03:13:25;;;;;;;1.33;0.30;;;;;;;6.06;58.88;96990.47;6198300;28;20248;-71
2022/02/19 03:16:28;;;;;;;0.83;0.40;;;;;;;6.03;59.33;97003.78;6190448;28;20376;-71
2022/02/19 03:19:31;;;;;;;1.20;0.43;;;;;;;5.96;59.18;97033.16;6198416;28;20232;-71
2022/02/19 03:22:36;;;;;;;0.20;0.20;;;;;;;6.02;59.03;97020.44;6218095;28;20757;-71
2022/02/19 03:25:38;;;;;;;1.13;0.60;;;;;;;6.02;59.36;97007.34;6217369;28;20286;-71
2022/02/19 03:28:45;;;;;;;2.27;0.67;;;;;;;5.89;59.29;97030.13;6201672;28;20857;-71
2022/02/19 03:31:49;;;;;;;1.27;0.30;;;;;;;5.81;59.43;97032.44;6201116;28;20308;-71
2022/02/19 03:34:54;;;;;;;0.77;0.30;;;;;;;5.75;60.23;97052.03;6200384;28;20240;-71
2022/02/19 03:37:57;;;;;;;0.97;0.60;;;;;;;5.72;60.39;97033.09;6200936;28;20324;-71
2022/02/19 03:41:16;;;;;;;1.53;0.60;;;;;;;5.71;58.84;97042.72;6200942;28;20701;-71
2022/02/19 03:44:18;;;;;;;1.20;0.37;;;;;;;5.72;59.97;97041.78;6194286;28;20240;-71
2022/02/19 03:47:27;;;;;;;1.87;0.40;;;;;;;5.69;58.98;97028.91;6204036;28;20327;-70
2022/02/19 03:50:36;;;;;;;2.00;0.50;;;;;;;5.68;59.50;97056.06;6202294;28;20708;-71
2022/02/19 03:53:38;;;;;;;0.90;0.40;;;;;;;5.52;59.48;97052.81;6201878;28;20327;-71
2022/02/19 03:56:43;;;;;;;1.53;0.40;;;;;;;5.55;58.97;97063.09;6200141;28;20374;-71
2022/02/19 03:59:46;;;;;;;0.90;0.37;;;;;;;5.68;58.16;97063.06;6201022;28;20251;-72
2022/02/19 04:02:48;;;;;;;2.23;0.37;;;;;;;5.60;57.36;97078.44;6201148;28;20240;-72
2022/02/19 04:05:58;;;;;;;0.40;0.30;;;;;;;5.53;57.90;97078.88;6201535;28;20733;-72
2022/02/19 04:09:00;;;;;;;5.13;0.60;;;;;;;5.43;57.29;97105.81;6200758;28;20228;-71
2022/02/19 04:12:03;;;;;;;0.30;0.30;;;;;;;5.59;55.69;97075.00;6195738;28;20582;-72
2022/02/19 04:15:09;;;;;;;1.67;0.33;;;;;;;5.55;56.63;97094.50;6193047;28;20229;-72
2022/02/19 04:18:15;;;;;;;2.47;0.50;;;;;;;5.56;54.67;97083.09;6211496;28;20224;-72
2022/02/19 04:21:17;;;;;;;1.40;0.43;;;;;;;5.53;55.36;97078.88;6192491;28;20204;-72
2022/02/19 04:24:20;;;;;;;1.03;0.30;;;;;;;5.68;52.91;97079.59;6211143;28;20250;-72
2022/02/19 04:27:29;;;;;;;0.70;0.40;;;;;;;5.56;54.07;97088.31;6209344;28;20743;-70
2022/02/19 04:30:32;;;;;;;0.80;0.40;;;;;;;5.54;53.65;97116.38;6208862;28;20232;-71
2022/02/19 04:33:36;;;;;;;2.67;0.40;;;;;;;5.81;51.50;97098.72;6208816;28;20231;-71
2022/02/19 04:36:38;;;;;;;0.30;0.30;;;;;;;5.84;51.58;97116.00;6205329;28;20224;-71
2022/02/19 04:39:42;;;;;;;1.87;0.40;;;;;;;5.92;50.77;97127.66;6193320;28;20229;-71
2022/02/19 04:42:53;;;;;;;0.97;0.50;;;;;;;5.81;50.95;97116.22;6209992;28;20314;-71
2022/02/19 04:46:01;;;;;;;3.90;0.60;;;;;;;5.75;51.41;97132.38;6209961;28;20594;-71
2022/02/19 04:49:04;;;;;;;2.60;0.40;;;;;;;5.66;52.21;97136.47;6210131;28;20726;-71
2022/02/19 04:52:07;;;;;;;2.93;0.53;;;;;;;5.68;52.07;97141.59;6224527;28;20308;-71
2022/02/19 04:55:10;;;;;;;1.23;0.63;;;;;;;5.72;50.91;97162.22;6207990;28;20261;-71
2022/02/19 04:58:12;;;;;;;1.00;0.67;;;;;;;5.74;51.08;97162.09;6218156;28;20576;-70
2022/02/19 05:01:14;;;;;;;1.53;0.40;;;;;;;5.77;50.82;97147.03;6222352;28;20592;-71
2022/02/19 05:04:36;;;;;;;2.70;0.50;;;;;;;5.79;50.42;97165.25;6207478;28;20234;-73
2022/02/19 05:07:40;;;;;;;1.50;0.60;;;;;;;5.96;49.61;97193.75;6233354;28;20236;-71
2022/02/19 05:10:44;;;;;;;1.73;0.60;;;;;;;5.98;48.96;97156.97;6222236;28;20345;-73
2022/02/19 05:13:50;;;;;;;2.83;0.60;;;;;;;6.02;49.97;97167.13;6201389;28;20240;-71
2022/02/19 05:16:53;;;;;;;1.53;0.40;;;;;;;5.98;48.94;97163.06;6209436;28;20227;-72
2022/02/19 05:20:05;;;;;;;0.73;0.43;;;;;;;6.03;48.75;97160.09;6232064;28;20232;-71
2022/02/19 05:23:12;;;;;;;1.73;0.70;;;;;;;6.06;49.56;97173.00;6232380;28;20292;-71
2022/02/19 05:26:16;;;;;;;1.63;0.50;;;;;;;6.05;48.98;97156.44;6227927;28;20248;-71
2022/02/19 05:29:19;;;;;;;3.87;0.57;;;;;;;6.07;49.53;97174.66;6211778;28;20236;-71
2022/02/19 05:32:21;;;;;;;2.23;0.73;;;;;;;6.19;48.67;97171.16;6229114;28;20233;-71
2022/02/19 05:35:31;;;;;;;2.23;0.63;;;;;;;6.05;50.21;97174.78;6230324;28;20266;-71
2022/02/19 05:38:33;;;;;;;0.87;0.60;;;;;;;5.94;49.76;97177.31;6220047;28;20228;-71
2022/02/19 05:41:36;;;;;;;1.30;0.50;;;;;;;6.01;50.16;97159.38;6200102;28;20618;-71
2022/02/19 05:44:40;;;;;;;2.13;0.70;;;;;;;6.03;49.85;97149.63;6220900;28;20239;-71
2022/02/19 05:47:43;;;;;;;1.10;0.50;;;;;;;6.06;48.90;97152.88;6179924;28;20316;-71
2022/02/19 05:50:56;;;;;;;1.50;0.50;;;;;;;6.03;49.91;97149.63;6186461;28;20225;-71
2022/02/19 05:54:15;;;;;;;2.67;0.97;;;;;;;6.00;49.93;97160.31;6203061;28;20724;-71
2022/02/19 05:57:23;;;;;;;4.57;0.93;;;;;;;5.97;49.96;97142.22;6203086;28;20693;-70
2022/02/19 06:00:25;;;;;;;1.73;0.60;;;;;;;5.85;51.71;97155.19;6202983;28;20299;-72
2022/02/19 06:03:28;;;;;;;1.93;0.43;;;;;;;5.76;52.24;97160.22;6202786;28;20242;-71
2022/02/19 06:06:30;;;;;;;4.10;0.80;;;;;;;5.81;50.23;97187.75;6219989;28;20222;-69
2022/02/19 06:09:32;;;;;;;0.70;0.40;;;;;;;6.02;49.78;97168.91;6187136;28;20230;-70
2022/02/19 06:12:37;;;;;;;2.63;0.70;;;;;;;6.08;49.21;97169.31;6205228;28;20239;-71
2022/02/19 06:15:51;;;;;;;2.73;0.63;;;;;;;6.19;48.98;97153.66;6202993;28;20324;-71
2022/02/19 06:19:01;;;;;;;2.33;0.70;;;;;;;6.25;49.00;97166.34;6204449;28;20382;-70
2022/02/19 06:22:03;;;;;;;2.97;0.60;;;;;;;6.18;48.89;97164.28;6202584;28;20245;-71
2022/02/19 06:25:09;;;;;;;2.07;0.83;;;;;;;6.12;48.82;97154.22;6186974;28;20416;-71
2022/02/19 06:28:11;;;;;;;4.03;0.73;;;;;;;6.08;49.03;97178.97;6217470;28;20265;-72
2022/02/19 06:31:17;;;;;;;4.57;0.90;;;;;;;6.09;49.04;97172.78;6213923;28;20414;-71
2022/02/19 06:34:19;;;;;;;1.50;0.53;;;;;;;6.09;49.37;97167.53;6195533;28;20232;-71
2022/02/19 06:37:22;;;;;;;2.60;0.90;;;;;;;6.16;48.07;97171.41;6193284;28;20254;-70
2022/02/19 06:40:25;;;;;;;2.43;0.70;;;;;;;6.22;47.99;97177.03;6193850;28;20329;-71
2022/02/19 06:43:27;;;;;;;2.77;1.27;;;;;;;6.29;48.33;97199.22;6194005;28;20240;-71
2022/02/19 06:46:29;;;;;;;3.60;1.20;;;;;;;6.28;48.31;97192.34;6187446;28;20239;-71
2022/02/19 06:49:31;;;;;;;2.10;0.60;;;;;;;6.19;49.25;97185.09;6201948;28;20225;-71
2022/02/19 06:52:35;;;;;;;2.40;0.70;;;;;;;6.14;49.24;97209.97;6214047;28;20355;-71
2022/02/19 06:55:37;;;;;;;1.67;0.93;;;;;;;6.15;49.31;97211.63;6214825;28;20239;-71
2022/02/19 06:58:41;;;;;;;2.17;0.80;;;;;;;6.23;48.83;97186.56;6210086;28;20532;-71
2022/02/19 07:01:43;;;;;;;5.00;1.20;;;;;;;6.32;48.19;97190.31;6247366;28;20242;-70
2022/02/19 07:04:46;;;;;;;2.37;0.80;;;;;;;6.30;48.48;97206.16;6218725;28;20243;-71
2022/02/19 07:08:15;;;;;;;2.17;0.87;;;;;;;6.28;48.48;97215.09;6186895;28;20375;-73
2022/02/19 07:11:17;;;;;;;3.30;0.97;;;;;;;6.19;49.64;97229.63;6201417;28;20224;-72
2022/02/19 07:14:21;;;;;;;2.47;0.60;;;;;;;6.07;50.05;97240.16;6214886;28;20594;-71
2022/02/19 07:17:23;;;;;;;2.37;0.90;;;;;;;6.10;49.28;97276.59;6225115;28;20224;-70
2022/02/19 07:20:26;;;;;;;2.83;0.90;;;;;;;6.24;49.10;97251.13;6225298;28;20236;-70
2022/02/19 07:23:28;;;;;;;4.40;0.90;;;;;;;6.21;48.87;97316.84;6225245;28;20232;-70
2022/02/19 07:26:31;;;;;;;2.20;0.63;;;;;;;6.27;48.92;97290.22;6224963;28;20597;-70
2022/02/19 07:29:39;;;;;;;2.73;0.70;;;;;;;6.28;49.45;97270.94;6226003;28;20521;-70
2022/02/19 07:32:44;;;;;;;1.23;0.53;;;;;;;6.19;49.77;97271.56;6226280;28;20243;-72
2022/02/19 07:36:00;;;;;;;1.83;1.17;;;;;;;6.05;50.70;97286.56;6230158;28;20228;-70
2022/02/19 07:39:03;;;;;;;3.83;0.97;;;;;;;6.17;48.99;97302.28;6228407;28;20250;-70
2022/02/19 07:42:09;;;;;;;2.13;0.70;;;;;;;6.18;50.36;97296.09;6218217;28;20227;-70
2022/02/19 07:45:14;;;;;;;2.17;0.77;;;;;;;6.12;49.82;97307.00;6225651;28;20212;-70
2022/02/19 07:48:48;;;;;;;2.57;0.50;;;;;;;6.09;50.23;97288.03;6224117;28;20228;-71
2022/02/19 07:59:07;;;;;;;2.40;0.80;;;;;;;6.08;50.17;97325.66;6191025;28;20542;-71
2022/02/19 08:02:11;;;;;;;2.53;0.57;;;;;;;6.10;50.78;97331.59;6224687;28;20652;-70
2022/02/19 08:05:14;;;;;;;1.53;0.67;;;;;;;6.16;49.61;97321.56;6223719;28;20589;-70
2022/02/19 08:08:19;;;;;;;4.83;0.80;;;;;;;6.15;51.26;97308.56;6227030;28;20226;-71
2022/02/19 08:11:21;;;;;;;6.10;1.23;;;;;;;6.08;51.66;97352.69;6224376;28;20598;-71
2022/02/19 08:14:23;;;;;;;1.47;0.63;;;;;;;6.43;48.59;97337.16;6215876;28;20225;-71
2022/02/19 08:17:25;;;;;;;2.63;0.80;;;;;;;6.71;48.30;97351.81;6201464;28;20228;-70
2022/02/19 08:20:27;;;;;;;2.83;0.97;;;;;;;6.82;46.24;97358.94;6200662;28;20798;-71
2022/02/19 08:23:30;;;;;;;2.47;0.70;;;;;;;6.89;46.82;97365.41;6221856;28;20659;-72
2022/02/19 08:26:32;;;;;;;2.77;0.87;;;;;;;7.01;46.66;97367.16;6224275;28;20446;-72
2022/02/19 08:29:34;;;;;;;3.47;0.83;;;;;;;7.04;46.81;97369.59;6225948;28;20225;-70
2022/02/19 08:32:36;;;;;;;3.43;0.90;;;;;;;7.16;46.78;97373.97;6215492;28;20222;-71
2022/02/19 08:35:39;;;;;;;1.83;0.83;;;;;;;7.34;46.13;97372.63;6225529;28;20241;-71
2022/02/19 08:38:41;;;;;;;2.20;0.70;;;;;;;7.46;46.29;97380.59;6202011;28;20243;-72
2022/02/19 08:41:47;;;;;;;4.47;1.20;;;;;;;7.62;45.54;97374.09;6203943;28;20316;-70
2022/02/19 08:44:49;;;;;;;3.33;0.90;;;;;;;7.87;44.95;97404.66;6209586;28;20266;-71
2022/02/19 08:48:01;;;;;;;3.17;0.50;;;;;;;7.97;45.22;97399.56;6216302;28;20718;-71
2022/02/19 08:51:03;;;;;;;2.87;0.97;;;;;;;8.04;44.93;97382.38;6224968;28;20233;-71
2022/02/19 08:54:05;;;;;;;4.83;1.13;;;;;;;8.08;45.89;97421.47;6201679;28;20223;-71
2022/02/19 08:57:07;;;;;;;3.37;0.90;;;;;;;8.39;44.95;97420.00;6215352;28;20227;-71
2022/02/19 09:00:10;;;;;;;1.67;0.70;;;;;;;8.71;44.99;97386.00;6201437;28;20217;-71
2022/02/19 09:03:12;;;;;;;2.17;0.80;;;;;;;8.92;43.60;97425.59;6220427;28;20249;-71
2022/02/19 09:06:14;;;;;;;3.93;0.83;;;;;;;9.09;44.55;97438.28;6205908;28;20292;-71
2022/02/19 09:09:16;;;;;;;6.93;1.23;;;;;;;9.23;42.89;97434.56;6203745;28;20209;-71
2022/02/19 09:12:18;;;;;;;2.43;0.80;;;;;;;9.47;44.04;97451.06;6205868;28;20254;-71
2022/02/19 09:15:23;;;;;;;1.70;0.90;;;;;;;9.42;42.48;97521.69;6220964;28;20683;-71
2022/02/19 09:18:25;;;;;;;3.07;0.90;;;;;;;9.06;42.89;97448.22;6204697;28;20607;-71
2022/02/19 09:21:30;;;;;;;6.00;0.90;;;;;;;9.18;43.25;97457.81;6204809;28;20236;-71
2022/02/19 09:24:33;;;;;;;1.47;0.60;;;;;;;9.52;43.66;97456.78;6204571;28;20235;-71
2022/02/19 09:27:36;;;;;;;3.57;0.90;;;;;;;9.62;41.92;97470.06;6204776;28;20239;-71
2022/02/19 09:30:37;;;;;;;1.67;0.73;;;;;;;9.78;41.88;97481.06;6204498;28;20231;-71
2022/02/19 10:33:31;;;;;;;2.63;1.23;;;;;;;12.07;36.96;97520.63;3902079;28;22204;-71
2022/02/19 10:36:50;;;;;;;3.03;0.80;;;;;;;11.95;35.45;97537.56;6225732;28;20593;-71
2022/02/19 10:39:52;;;;;;;4.93;1.20;;;;;;;11.38;35.56;97531.88;6224227;28;20709;-71
2022/02/19 10:42:57;;;;;;;3.07;0.97;;;;;;;11.43;36.30;97550.00;6226762;28;20229;-71
2022/02/19 10:46:01;;;;;;;1.53;0.90;;;;;;;11.52;36.54;97546.56;6227640;28;20281;-72
2022/02/19 10:49:11;;;;;;;3.67;1.10;;;;;;;11.64;37.05;97558.72;6224660;28;20240;-72
2022/02/19 10:52:13;;;;;;;2.37;1.10;;;;;;;11.53;36.55;97547.41;6226984;28;20779;-72
2022/02/19 10:55:18;;;;;;;1.70;0.70;;;;;;;11.31;35.73;97557.16;6213718;28;20324;-72
2022/02/19 10:58:21;;;;;;;4.40;1.10;;;;;;;10.70;35.28;97567.59;6226168;28;20443;-71
2022/02/19 11:01:24;;;;;;;1.23;0.50;;;;;;;10.95;36.93;97549.72;6209472;28;20316;-71
2022/02/19 11:04:28;;;;;;;3.00;0.87;;;;;;;10.99;35.91;97575.72;6221324;28;20681;-71
2022/02/19 11:07:31;;;;;;;1.97;0.90;;;;;;;11.09;35.80;97554.66;6220118;28;20764;-71
2022/02/19 11:10:33;;;;;;;2.43;0.90;;;;;;;11.17;35.48;97560.16;6227238;28;20604;-70
2022/02/19 11:13:36;;;;;;;1.73;0.87;;;;;;;11.44;34.74;97592.16;6225382;28;20233;-70
2022/02/19 11:16:39;;;;;;;2.17;0.90;;;;;;;11.67;34.89;97576.97;6226541;28;20243;-70
2022/02/19 11:19:41;;;;;;;2.40;0.90;;;;;;;11.94;34.83;97573.75;6226478;28;20239;-71
2022/02/19 11:22:44;;;;;;;2.90;0.80;;;;;;;11.97;34.14;97577.97;6226695;28;20234;-71
2022/02/19 11:25:47;;;;;;;2.13;0.77;;;;;;;11.91;33.07;97570.53;6226421;28;20241;-71
2022/02/19 11:28:51;;;;;;;2.70;1.17;;;;;;;11.65;33.27;97570.97;6226245;28;20598;-71
2022/02/19 11:31:56;;;;;;;3.63;1.20;;;;;;;11.59;33.97;97578.56;6226273;28;20233;-71
2022/02/19 11:34:58;;;;;;;2.77;0.90;;;;;;;11.97;34.67;97605.25;6216414;28;20702;-71
2022/02/19 11:38:01;;;;;;;3.40;0.83;;;;;;;11.54;34.12;97596.66;6212954;28;20317;-71
2022/02/19 11:41:07;;;;;;;1.67;0.70;;;;;;;11.52;36.01;97562.41;6211114;28;20622;-71
2022/02/19 11:44:21;;;;;;;1.50;0.80;;;;;;;11.91;34.34;97573.19;6220878;28;20324;-71
2022/02/19 11:47:25;;;;;;;2.43;0.80;;;;;;;12.14;34.20;97578.13;6224364;28;20694;-70
2022/02/19 11:50:29;;;;;;;2.40;0.87;;;;;;;12.38;34.44;97569.81;6225036;28;20224;-71
2022/02/19 11:53:34;;;;;;;2.40;1.00;;;;;;;12.40;34.51;97591.69;6225601;28;20225;-71
2022/02/19 11:56:41;;;;;;;2.63;0.77;;;;;;;11.39;34.96;97609.34;6226151;28;20402;-71
2022/02/19 11:59:48;;;;;;;2.13;0.93;;;;;;;11.26;35.93;97585.78;6225784;28;20591;-71
2022/02/19 12:03:19;;;;;;;3.10;1.00;;;;;;;11.26;35.17;97603.44;6224588;28;20734;-70
2022/02/19 12:06:27;;;;;;;1.40;0.80;;;;;;;11.06;36.04;97608.59;6224562;28;20662;-70
2022/02/19 12:09:29;;;;;;;2.00;0.87;;;;;;;11.40;36.47;97571.41;6203812;28;20753;-70
2022/02/19 12:13:22;;;;;;;1.60;0.60;;;;;;;11.87;35.56;97598.25;6223771;28;20712;-70
2022/02/19 12:16:35;;;;;;;1.57;0.70;;;;;;;12.53;34.66;97589.63;6204011;28;20761;-71
2022/02/19 12:20:22;;;;;;;2.03;1.17;;;;;;;12.63;32.48;97581.69;6225882;28;20247;-71
2022/02/19 12:23:44;;;;;;;3.90;0.97;;;;;;;12.63;33.69;97594.09;6197617;28;20243;-70
2022/02/19 12:26:55;;;;;;;1.47;0.67;;;;;;;12.71;33.57;97596.88;6180540;28;20239;-71
2022/02/19 12:30:15;;;;;;;1.90;0.70;;;;;;;12.78;33.51;97600.66;6197516;28;20234;-70
2022/02/19 13:33:44;;;;;;;1.33;0.70;;;;;;;10.94;33.77;97621.97;3922876;28;22235;-70
2022/02/19 13:36:46;;;;;;;1.30;0.60;;;;;;;10.57;33.70;97621.53;6219775;28;20244;-71
2022/02/19 13:39:52;;;;;;;1.07;0.67;;;;;;;10.32;32.55;97617.38;6229173;28;20647;-71
2022/02/19 13:42:57;;;;;;;1.73;0.80;;;;;;;10.39;32.93;97613.25;6227462;28;20220;-71
2022/02/19 13:46:39;;;;;;;2.80;0.80;;;;;;;10.09;32.55;97627.06;6228807;28;20232;-71
2022/02/19 13:49:45;;;;;;;4.33;1.00;;;;;;;10.22;33.98;97651.56;6200228;28;20228;-71
2022/02/19 13:52:47;;;;;;;3.37;0.90;;;;;;;9.92;35.41;97656.56;6202018;28;20241;-71
2022/02/19 13:55:54;;;;;;;1.63;0.90;;;;;;;9.90;36.64;97630.31;6199870;28;20685;-71
2022/02/19 13:59:20;;;;;;;2.87;0.90;;;;;;;9.69;36.45;97657.50;6200108;28;20612;-71
2022/02/19 14:02:22;;;;;;;1.50;0.80;;;;;;;9.76;35.83;97662.19;6200070;28;20661;-71
2022/02/19 14:05:44;;;;;;;2.13;0.90;;;;;;;9.85;35.53;97658.00;6200054;28;20243;-71
2022/02/19 14:08:46;;;;;;;2.27;0.80;;;;;;;9.99;35.54;97669.16;6183563;28;20251;-70
2022/02/19 14:11:51;;;;;;;1.90;0.83;;;;;;;10.07;33.94;97662.44;6190058;28;20708;-70
2022/02/19 14:14:53;;;;;;;2.90;0.60;;;;;;;10.07;35.67;97670.38;6200117;28;20235;-71
2022/02/19 14:18:04;;;;;;;2.07;0.90;;;;;;;10.01;34.43;97653.22;6183637;28;20730;-71
2022/02/19 14:21:19;;;;;;;2.87;0.93;;;;;;;10.05;35.14;97673.13;6200090;28;20743;-71
2022/02/19 14:25:01;;;;;;;4.53;0.83;;;;;;;9.90;34.79;97666.38;6210405;28;20243;-71
2022/02/19 14:28:06;;;;;;;4.67;0.90;;;;;;;9.81;35.63;97667.09;6226035;28;20231;-71
2022/02/19 14:31:10;;;;;;;1.63;0.60;;;;;;;9.75;34.57;97691.31;6226994;28;20342;-71
2022/02/19 14:34:18;;;;;;;2.27;0.70;;;;;;;9.77;34.11;97682.34;6220191;28;20525;-71
2022/02/19 14:37:23;;;;;;;2.83;0.80;;;;;;;9.53;34.97;97692.94;6222260;28;20239;-71
2022/02/19 14:40:25;;;;;;;3.77;0.90;;;;;;;9.40;34.84;97697.44;6218120;28;20239;-71
2022/02/19 14:43:28;;;;;;;4.20;0.80;;;;;;;9.42;35.99;97698.19;6222214;28;20232;-71
2022/02/19 14:46:30;;;;;;;1.87;0.80;;;;;;;9.43;35.51;97686.69;6224876;28;20762;-71
2022/02/19 14:49:48;;;;;;;4.27;0.80;;;;;;;9.19;34.85;97678.81;6226801;28;20493;-70
2022/02/19 14:52:50;;;;;;;1.93;0.90;;;;;;;9.00;35.76;97690.84;6232780;28;20742;-71
2022/02/19 14:55:55;;;;;;;2.63;0.83;;;;;;;8.98;35.91;97683.06;6225507;28;20230;-71
2022/02/19 14:58:57;;;;;;;1.43;0.63;;;;;;;8.95;36.02;97692.97;6226636;28;20664;-70
2022/02/19 15:01:59;;;;;;;1.10;0.70;;;;;;;8.87;35.54;97696.19;6227513;28;20232;-70
2022/02/19 15:05:01;;;;;;;2.63;0.60;;;;;;;8.73;35.95;97694.53;6226850;28;20238;-71
2022/02/19 15:08:16;;;;;;;2.70;0.90;;;;;;;8.79;36.19;97703.75;6215738;28;20243;-70
2022/02/19 15:11:19;;;;;;;2.23;0.60;;;;;;;8.79;36.13;97728.28;6224884;28;20231;-70
2022/02/19 15:14:21;;;;;;;7.23;1.10;;;;;;;8.71;36.44;97725.38;6209432;28;20745;-69
2022/02/19 15:17:24;;;;;;;4.53;0.70;;;;;;;8.61;36.16;97718.25;6225366;28;20248;-69
2022/02/19 15:20:26;;;;;;;2.20;0.87;;;;;;;8.57;37.28;97715.03;6225811;28;20240;-69
2022/02/19 15:23:28;;;;;;;3.47;0.77;;;;;;;8.51;38.33;97718.06;6226191;28;20231;-70
2022/02/19 15:26:30;;;;;;;3.60;0.93;;;;;;;8.46;37.11;97710.53;6227351;28;20241;-70
2022/02/19 15:29:33;;;;;;;1.90;0.70;;;;;;;8.37;37.41;97732.22;6224256;28;20226;-70
2022/02/19 15:32:35;;;;;;;2.53;0.70;;;;;;;8.35;36.70;97722.75;6226269;28;20228;-70
2022/02/19 15:35:37;;;;;;;2.90;0.80;;;;;;;8.30;37.65;97725.66;6211072;28;20242;-70
2022/02/19 15:38:39;;;;;;;2.80;0.80;;;;;;;8.19;38.13;97730.81;6207809;28;20250;-70
2022/02/19 15:41:41;;;;;;;2.07;0.67;;;;;;;8.11;37.60;97735.78;6225678;28;20235;-69
2022/02/19 15:44:43;;;;;;;2.53;0.80;;;;;;;7.97;37.16;97736.75;6225511;28;20278;-70
2022/02/19 15:47:45;;;;;;;1.83;0.70;;;;;;;7.91;37.75;97741.56;6224992;28;20266;-70
2022/02/19 15:50:47;;;;;;;2.90;0.90;;;;;;;7.83;37.64;97751.78;6224344;28;20604;-70
2022/02/19 15:53:49;;;;;;;2.57;0.97;;;;;;;7.72;37.30;97749.88;6225674;28;20786;-71
2022/02/19 15:56:52;;;;;;;1.53;0.70;;;;;;;7.69;37.41;97757.94;6225546;28;20227;-69
2022/02/19 15:59:54;;;;;;;5.07;1.10;;;;;;;7.63;37.33;97750.50;6225045;28;20234;-70
2022/02/19 16:02:58;;;;;;;3.37;0.83;;;;;;;7.56;38.38;97752.69;6223775;28;20227;-70
2022/02/19 16:06:02;;;;;;;4.23;0.90;;;;;;;7.45;38.74;97756.97;6226087;28;20246;-70
2022/02/19 16:09:05;;;;;;;2.90;0.80;;;;;;;7.41;38.12;97746.66;6223269;28;20237;-70
2022/02/19 16:12:07;;;;;;;4.13;1.30;;;;;;;7.34;39.57;97744.56;6225919;28;20288;-70
2022/02/19 16:15:09;;;;;;;2.03;0.60;;;;;;;7.27;38.30;97761.66;6225435;28;20223;-70
2022/02/19 16:18:11;;;;;;;3.17;0.90;;;;;;;7.22;39.70;97756.72;6225993;28;20588;-70
2022/02/19 16:21:15;;;;;;;2.90;0.90;;;;;;;7.16;38.80;97765.00;6226651;28;20698;-71
2022/02/19 16:24:17;;;;;;;2.17;0.67;;;;;;;7.09;38.93;97768.13;6226630;28;20244;-70
2022/02/19 16:27:19;;;;;;;3.73;0.93;;;;;;;7.09;38.39;97773.38;6226562;28;20215;-70
2022/02/19 16:30:21;;;;;;;1.70;0.80;;;;;;;7.03;38.91;97780.69;6223965;28;20214;-70
2022/02/19 16:33:36;;;;;;;2.90;0.83;;;;;;;6.97;38.95;97775.84;6224569;28;20233;-70
2022/02/19 16:36:38;;;;;;;2.33;0.70;;;;;;;6.92;39.84;97783.16;6220751;28;20457;-70
2022/02/19 16:39:40;;;;;;;0.83;0.70;;;;;;;6.90;39.23;97799.91;6214814;28;20708;-71
2022/02/19 16:42:43;;;;;;;1.60;0.73;;;;;;;6.84;39.71;97793.28;6209933;28;20737;-70
2022/02/19 16:45:45;;;;;;;2.80;1.00;;;;;;;6.73;41.07;97787.88;6225835;28;20247;-70
2022/02/19 16:48:48;;;;;;;4.00;0.70;;;;;;;6.68;41.33;97797.00;6208535;28;20709;-70